Groom Creek, Arizona
Current Conditions -  °F | °C
As of 4:53 PM on Sunday 25 Jan 2015 (Local Time) from KPRC Reporting Station
Clear Clear  
Wind Chill: 18°   Ceiling: Unl
Heat Index: 18°   Visibility: 10mi
Dew Point: -6°   Wind: 8mph
Humidity: 19%   Direction: 20°NNE
Pressure: 30.19"   Gusts: NA
Location:  34.5368°N, 112.512°W
Report Text: KPRC 252353Z 02007KT 10SM CLR 18/M06 A3019 RMK AO2 SLP191 T01831061 10200 20117 56005
Loading
Personal Weather Stations






























Interactive Weather Map New forecast layout! Learn more

10-Day Weather Forecast

Advertisements
Track Severe Weather on mobile